Fort Smith, Montana
Current Conditions -  °F | °C
As of 6:35 PM on Sunday 23 Nov 2014 (Local Time) from KU68 Reporting Station
Broken Clouds Broken Clouds  
Wind Chill: 32°   Ceiling: 9000
Heat Index: 32°   Visibility: 10mi
Dew Point: 18°   Wind: 0mph
Humidity: 55%   Direction: NA
Pressure: 29.89"   Gusts: NA
Location:  45.3126°N, 107.936°W
Report Text: KU68 240135Z AUTO 00000KT 10SM BKN090 00/M08 A2989 RMK AO2 PWINO
Loading
Personal Weather Stations






























Interactive Weather Map New forecast layout! Learn more

10-Day Weather Forecast

Advertisements
Track Severe Weather on mobile